Airfield :
LOGIN :

Register | Disclaimer

   EN    FR    IT 

 










Legend :    VFR   Marginal VFR   IFR   Intensive IFR   Very Intensive IFR
Visi :
Ceiling :
>= 8 km
>= 3000ft
5 to 8 km
1000 to 3000 ft
1500m to 5 km
500 to 1000 ft
800 to 1500m
200 to 500 ft
< 800m
< 200 ft
Symbols :   Thunderstorms  Fog  Heavy snow  Heavy precipitations  Wind > 20 kt
SIGMETs :     Misc.  Thunderstorms  Icing  Turbulence  Mountain Waves  Volcanic Ashes







- Airport Elevation : 37 ft
- IATA code : HLY


EGOV - RAF Valley

CURRENT METAR :
  • 161550Z 35009KT 9999 BKN025 15/09 Q1024 NOSIG RMK BLU BLU

EXPIRED METARs :
  • 161521Z 01008KT 9999 BKN026 15/09 Q1024 NOSIG RMK BLU BLU
  • 161450Z 36008KT 9999 FEW022 BKN027 16/09 Q1024 NOSIG RMK BLU BLU
  • 161422Z 01009KT 9999 FEW022 BKN028 16/09 Q1024 NOSIG RMK BLU BLU
  • 161350Z 01010KT 9999 FEW022 BKN028 16/09 Q1024 NOSIG RMK BLU BLU
  • 161322Z 02009KT 9999 FEW020 BKN028 16/09 Q1024 NOSIG RMK BLU BLU

TAF TAF EGOV
Valid from the 16 at 15:00 until the 16 at 19:00 UTC


161321Z 1615/1619 01010KT 9999 FEW020 SCT028
No reported NOTAMs for that airfield.



MET'MAP, your aeronautical weather chart ! - Copyright ORBIFLY December 2007 - Disclaimer

ORBIFLY MET'MAP TEAM :

Programming & Development : Alexandra Zaïnal
Concept & Development : Baudouin d'Aumeries
Co-Development & Prog : Marc-Olivier Méhu
Technical & hardware support : Manuel Goepfert

Contact : metmap@orbifly.com




SOURCES & CREDITS :

   NOAA